Taurus — WDF3127 — position and weather

sailwx.info

Track history (hours):
 
Tides and Currents Weather Stations Pressure Air Temp Water Temp Dewpoint Dewpoint Depression Visibility Wind Speed Wind Dir Waves Ship Positions

Taurus

Owner: San Francisco Bay Area Water Emergency Transportation Authority, San Francisco, CA. More information available from US FCC via Universal Licensing System and Coast Guard Vessel Documentation Center.

Last reported at 2018-Apr-23 17:25 UTC. Time now 2018-Apr-23 21:11 UTC.
Position N 37°48' W 122°24'.

Type: Passenger vessel. MMSI: 367436230.

Date/timePositionNaut miles runAvg speedWind from/ knotsBaromVisibWave heightAir tempDewpointWater temp
2018-Apr-23 17:25N 37°48' W 122°24'0 0.0
2018-Apr-23 17:00N 37°48' W 122°24'0 0.0
2018-Apr-23 16:30N 37°48' W 122°24'0 0.3
2018-Apr-23 16:00N 37°48' W 122°24'816.6
2018-Apr-23 15:30N 37°40' W 122°23'714.6
2018-Apr-23 15:01N 37°47' W 122°21'2 4.9
2018-Apr-23 14:30N 37°47' W 122°18'510.0
2018-Apr-23 14:00N 37°48' W 122°24'0 0.0
2018-Apr-23 13:30N 37°48' W 122°24'0 0.0
2018-Apr-23 13:00N 37°48' W 122°24'0 0.0
2018-Apr-22 18:51N 37°48' W 122°24'2 4.4
2018-Apr-22 18:31N 37°47' W 122°22'2 0.0
2018-Apr-21 01:41N 37°48' W 122°24'1 6.6
2018-Apr-21 01:31N 37°48' W 122°23'4 8.1
2018-Apr-21 01:01N 37°48' W 122°18'612.9
2018-Apr-21 00:30N 37°42' W 122°21'2 4.4
2018-Apr-21 00:00N 37°40' W 122°23'816.3
2018-Apr-20 23:30N 37°48' W 122°23'1 1.9
2018-Apr-20 23:01N 37°48' W 122°24'0 0.0
2018-Apr-20 17:11N 37°48' W 122°24'1 5.0
2018-Apr-20 17:00N 37°49' W 122°25'0 0.5
2018-Apr-20 16:30N 37°49' W 122°25'0 0.6
2018-Apr-20 16:01N 37°49' W 122°25'917.8
2018-Apr-20 15:29N 37°40' W 122°23'613.4
2018-Apr-20 15:01N 37°46' W 122°21'3 6.2
2018-Apr-20 14:31N 37°47' W 122°18'5 9.9
2018-Apr-20 14:00N 37°48' W 122°24'0 0.0
2018-Apr-20 13:30N 37°48' W 122°24'0 0.0
2018-Apr-20 01:41N 37°48' W 122°24'0 0.1
2018-Apr-20 01:31N 37°48' W 122°24'510.2
2018-Apr-20 01:00N 37°48' W 122°17'713.4
2018-Apr-20 00:31N 37°42' W 122°21'2 4.2
2018-Apr-20 00:00N 37°40' W 122°23'917.2
2018-Apr-19 23:31N 37°48' W 122°23'0 0.9
2018-Apr-19 23:00N 37°48' W 122°24'0 0.0
2018-Apr-19 22:30N 37°48' W 122°24'0 0.0
2018-Apr-19 22:00N 37°48' W 122°24'0 0.0
2018-Apr-19 21:30N 37°48' W 122°24'0 0.0
2018-Apr-19 21:00N 37°48' W 122°24'0 0.0
2018-Apr-19 20:30N 37°48' W 122°24'0 0.0
2018-Apr-19 20:00N 37°48' W 122°24'0 0.0
2018-Apr-19 18:10N 37°48' W 122°24'0 1.8
2018-Apr-19 18:00N 37°48' W 122°24'1 2.0
2018-Apr-19 17:30N 37°49' W 122°25'0 0.1
2018-Apr-19 17:00N 37°49' W 122°25'0 0.0
2018-Apr-19 16:30N 37°49' W 122°25'0 0.6
2018-Apr-19 16:01N 37°49' W 122°25'918.3
2018-Apr-19 15:30N 37°40' W 122°23'612.8
2018-Apr-19 15:01N 37°46' W 122°22'4 7.2
2018-Apr-19 14:30N 37°47' W 122°18'5 9.7
2018-Apr-19 14:00N 37°48' W 122°24'0 0.0
2018-Apr-19 01:44N 37°48' W 122°24'1 4.4
2018-Apr-19 01:30N 37°48' W 122°23'4 8.0
2018-Apr-19 01:01N 37°47' W 122°18'713.7
2018-Apr-19 00:31N 37°41' W 122°21'2 3.5
2018-Apr-19 00:00N 37°40' W 122°23'815.1
2018-Apr-18 23:31N 37°47' W 122°22'1 2.5
2018-Apr-18 22:58N 37°48' W 122°24'0 0.0
2018-Apr-18 22:28N 37°48' W 122°24'0 0.0
2018-Apr-18 21:58N 37°48' W 122°24'0 0.0
2018-Apr-18 21:28N 37°48' W 122°24'0 0.0
2018-Apr-18 20:58N 37°48' W 122°24'0 0.0
2018-Apr-18 20:28N 37°48' W 122°24'0 0.0
2018-Apr-18 19:58N 37°48' W 122°24'0 0.0
2018-Apr-18 19:28N 37°48' W 122°24'0 0.0
2018-Apr-18 18:58N 37°48' W 122°24'0 0.0
2018-Apr-18 18:28N 37°48' W 122°24'0 0.0
2018-Apr-18 17:58N 37°48' W 122°24'0 0.0
2018-Apr-18 17:28N 37°48' W 122°24'0 0.0
2018-Apr-18 16:58N 37°48' W 122°24'0 0.0
2018-Apr-18 16:28N 37°48' W 122°24'0 0.0
2018-Apr-18 16:00N 37°48' W 122°24'816.8
2018-Apr-18 15:30N 37°40' W 122°23'612.3
2018-Apr-18 15:00N 37°46' W 122°21'3 5.5
2018-Apr-18 14:29N 37°47' W 122°18'511.3
2018-Apr-18 14:00N 37°49' W 122°24'0 0.7
2018-Apr-18 13:30N 37°49' W 122°25'0 0.0
2018-Apr-18 13:00N 37°49' W 122°25'0 0.0
2018-Apr-18 01:42N 37°49' W 122°25'0 0.3
2018-Apr-18 01:30N 37°49' W 122°25'612.3
2018-Apr-18 01:00N 37°48' W 122°17'714.0
2018-Apr-18 00:31N 37°42' W 122°21'2 3.8
2018-Apr-17 23:59N 37°40' W 122°23'817.6
2018-Apr-17 23:30N 37°48' W 122°23'1 1.3
2018-Apr-17 22:58N 37°48' W 122°24'0 0.0
2018-Apr-17 22:28N 37°48' W 122°24'0 0.0
2018-Apr-17 21:58N 37°48' W 122°24'0 0.0
2018-Apr-17 21:28N 37°48' W 122°24'0 0.0
2018-Apr-17 20:58N 37°48' W 122°24'0 0.0
2018-Apr-17 20:28N 37°48' W 122°24'0 0.0
2018-Apr-17 19:58N 37°48' W 122°24'0 0.0
2018-Apr-17 19:28N 37°48' W 122°24'0 0.0
2018-Apr-17 18:58N 37°48' W 122°24'0 0.0
2018-Apr-17 18:28N 37°48' W 122°24'0 0.0
2018-Apr-17 17:58N 37°48' W 122°24'0 0.0
2018-Apr-17 17:28N 37°48' W 122°24'0 0.0
2018-Apr-17 16:58N 37°48' W 122°24'0 0.0
2018-Apr-17 16:28N 37°48' W 122°24'1 3.0
2018-Apr-17 16:00N 37°47' W 122°23'714.1
2018-Apr-17 15:29N 37°40' W 122°23'817.8
2018-Apr-17 15:00N 37°48' W 122°19'1 1.5
2018-Apr-17 14:30N 37°47' W 122°18'5 9.5
2018-Apr-17 13:58N 37°48' W 122°24'0 0.0
2018-Apr-17 13:28N 37°48' W 122°24'0 0.0
2018-Apr-17 01:35N 37°48' W 122°24'0 0.1
2018-Apr-17 01:29N 37°48' W 122°24'511.5
2018-Apr-17 01:00N 37°48' W 122°17'714.1
2018-Apr-17 00:30N 37°41' W 122°22'2 3.7
2018-Apr-17 00:00N 37°40' W 122°23'816.6
2018-Apr-16 23:30N 37°48' W 122°23'1 0.1
2018-Apr-16 17:30N 37°48' W 122°24'1 1.8
2018-Apr-16 17:00N 37°49' W 122°25'0 0.0
2018-Apr-16 16:30N 37°49' W 122°25'1 1.5
2018-Apr-16 16:01N 37°49' W 122°24'917.0
2018-Apr-16 15:28N 37°40' W 122°23'818.4
2018-Apr-16 15:00N 37°48' W 122°20'2 3.8
2018-Apr-16 14:30N 37°47' W 122°18'5 9.6
2018-Apr-16 13:59N 37°48' W 122°24'0 0.0
2018-Apr-16 13:29N 37°48' W 122°24'0 0.0
2018-Apr-16 12:59N 37°48' W 122°24'  
2018-Apr-14 01:50N 37°48' W 122°24'1 4.5
2018-Apr-14 01:30N 37°48' W 122°22'3 6.6
2018-Apr-14 00:59N 37°47' W 122°18'715.3
2018-Apr-14 00:30N 37°41' W 122°21'1 2.8
2018-Apr-14 00:00N 37°40' W 122°23'713.6
2018-Apr-13 23:30N 37°46' W 122°22'2 3.8
2018-Apr-13 22:59N 37°48' W 122°24'0 0.0
2018-Apr-13 22:29N 37°48' W 122°24'0 0.0
2018-Apr-13 21:59N 37°48' W 122°24'0 0.0
2018-Apr-13 21:29N 37°48' W 122°24'0 0.0
2018-Apr-13 20:59N 37°48' W 122°24'0 0.0
2018-Apr-13 20:29N 37°48' W 122°24'0 0.0
2018-Apr-13 19:59N 37°48' W 122°24'0 0.0
2018-Apr-13 19:29N 37°48' W 122°24'0 0.0
2018-Apr-13 18:59N 37°48' W 122°24'0 0.0
2018-Apr-13 18:29N 37°48' W 122°24'0 0.0
2018-Apr-13 17:59N 37°48' W 122°24'0 0.0
2018-Apr-13 17:29N 37°48' W 122°24'  
Track history (hours):
 
Tides and Currents Weather Stations Pressure Air Temp Water Temp Dewpoint Dewpoint Depression Visibility Wind Speed Wind Dir Waves Ship Positions

Taurus

Owner: San Francisco Bay Area Water Emergency Transportation Authority, San Francisco, CA. More information available from US FCC via Universal Licensing System and Coast Guard Vessel Documentation Center.

Last reported at 2018-Apr-23 17:25 UTC. Time now 2018-Apr-23 21:11 UTC.
Position N 37°48' W 122°24'.

Type: Passenger vessel. MMSI: 367436230.

Date/timePositionNaut miles runAvg speedWind from/ knotsBaromVisibWave heightAir tempDewpointWater temp
2018-Apr-23 17:25N 37°48' W 122°24'0 0.0
2018-Apr-23 17:00N 37°48' W 122°24'0 0.0
2018-Apr-23 16:30N 37°48' W 122°24'0 0.3
2018-Apr-23 16:00N 37°48' W 122°24'816.6
2018-Apr-23 15:30N 37°40' W 122°23'714.6
2018-Apr-23 15:01N 37°47' W 122°21'2 4.9
2018-Apr-23 14:30N 37°47' W 122°18'510.0
2018-Apr-23 14:00N 37°48' W 122°24'0 0.0
2018-Apr-23 13:30N 37°48' W 122°24'0 0.0
2018-Apr-23 13:00N 37°48' W 122°24'0 0.0
2018-Apr-22 18:51N 37°48' W 122°24'2 4.4
2018-Apr-22 18:31N 37°47' W 122°22'2 0.0
2018-Apr-21 01:41N 37°48' W 122°24'1 6.6
2018-Apr-21 01:31N 37°48' W 122°23'4 8.1
2018-Apr-21 01:01N 37°48' W 122°18'612.9
2018-Apr-21 00:30N 37°42' W 122°21'2 4.4
2018-Apr-21 00:00N 37°40' W 122°23'816.3
2018-Apr-20 23:30N 37°48' W 122°23'1 1.9
2018-Apr-20 23:01N 37°48' W 122°24'0 0.0
2018-Apr-20 17:11N 37°48' W 122°24'1 5.0
2018-Apr-20 17:00N 37°49' W 122°25'0 0.5
2018-Apr-20 16:30N 37°49' W 122°25'0 0.6
2018-Apr-20 16:01N 37°49' W 122°25'917.8
2018-Apr-20 15:29N 37°40' W 122°23'613.4
2018-Apr-20 15:01N 37°46' W 122°21'3 6.2
2018-Apr-20 14:31N 37°47' W 122°18'5 9.9
2018-Apr-20 14:00N 37°48' W 122°24'0 0.0
2018-Apr-20 13:30N 37°48' W 122°24'0 0.0
2018-Apr-20 01:41N 37°48' W 122°24'0 0.1
2018-Apr-20 01:31N 37°48' W 122°24'510.2
2018-Apr-20 01:00N 37°48' W 122°17'713.4
2018-Apr-20 00:31N 37°42' W 122°21'2 4.2
2018-Apr-20 00:00N 37°40' W 122°23'917.2
2018-Apr-19 23:31N 37°48' W 122°23'0 0.9
2018-Apr-19 23:00N 37°48' W 122°24'0 0.0
2018-Apr-19 22:30N 37°48' W 122°24'0 0.0
2018-Apr-19 22:00N 37°48' W 122°24'0 0.0
2018-Apr-19 21:30N 37°48' W 122°24'0 0.0
2018-Apr-19 21:00N 37°48' W 122°24'0 0.0
2018-Apr-19 20:30N 37°48' W 122°24'0 0.0
2018-Apr-19 20:00N 37°48' W 122°24'0 0.0
2018-Apr-19 18:10N 37°48' W 122°24'0 1.8
2018-Apr-19 18:00N 37°48' W 122°24'1 2.0
2018-Apr-19 17:30N 37°49' W 122°25'0 0.1
2018-Apr-19 17:00N 37°49' W 122°25'0 0.0
2018-Apr-19 16:30N 37°49' W 122°25'0 0.6
2018-Apr-19 16:01N 37°49' W 122°25'918.3
2018-Apr-19 15:30N 37°40' W 122°23'612.8
2018-Apr-19 15:01N 37°46' W 122°22'4 7.2
2018-Apr-19 14:30N 37°47' W 122°18'5 9.7
2018-Apr-19 14:00N 37°48' W 122°24'0 0.0
2018-Apr-19 01:44N 37°48' W 122°24'1 4.4
2018-Apr-19 01:30N 37°48' W 122°23'4 8.0
2018-Apr-19 01:01N 37°47' W 122°18'713.7
2018-Apr-19 00:31N 37°41' W 122°21'2 3.5
2018-Apr-19 00:00N 37°40' W 122°23'815.1
2018-Apr-18 23:31N 37°47' W 122°22'1 2.5
2018-Apr-18 22:58N 37°48' W 122°24'0 0.0
2018-Apr-18 22:28N 37°48' W 122°24'0 0.0
2018-Apr-18 21:58N 37°48' W 122°24'0 0.0
2018-Apr-18 21:28N 37°48' W 122°24'0 0.0
2018-Apr-18 20:58N 37°48' W 122°24'0 0.0
2018-Apr-18 20:28N 37°48' W 122°24'0 0.0
2018-Apr-18 19:58N 37°48' W 122°24'0 0.0
2018-Apr-18 19:28N 37°48' W 122°24'0 0.0
2018-Apr-18 18:58N 37°48' W 122°24'0 0.0
2018-Apr-18 18:28N 37°48' W 122°24'0 0.0
2018-Apr-18 17:58N 37°48' W 122°24'0 0.0
2018-Apr-18 17:28N 37°48' W 122°24'0 0.0
2018-Apr-18 16:58N 37°48' W 122°24'0 0.0
2018-Apr-18 16:28N 37°48' W 122°24'0 0.0
2018-Apr-18 16:00N 37°48' W 122°24'816.8
2018-Apr-18 15:30N 37°40' W 122°23'612.3
2018-Apr-18 15:00N 37°46' W 122°21'3 5.5
2018-Apr-18 14:29N 37°47' W 122°18'511.3
2018-Apr-18 14:00N 37°49' W 122°24'0 0.7
2018-Apr-18 13:30N 37°49' W 122°25'0 0.0
2018-Apr-18 13:00N 37°49' W 122°25'0 0.0
2018-Apr-18 01:42N 37°49' W 122°25'0 0.3
2018-Apr-18 01:30N 37°49' W 122°25'612.3
2018-Apr-18 01:00N 37°48' W 122°17'714.0
2018-Apr-18 00:31N 37°42' W 122°21'2 3.8
2018-Apr-17 23:59N 37°40' W 122°23'817.6
2018-Apr-17 23:30N 37°48' W 122°23'1 1.3
2018-Apr-17 22:58N 37°48' W 122°24'0 0.0
2018-Apr-17 22:28N 37°48' W 122°24'0 0.0
2018-Apr-17 21:58N 37°48' W 122°24'0 0.0
2018-Apr-17 21:28N 37°48' W 122°24'0 0.0
2018-Apr-17 20:58N 37°48' W 122°24'0 0.0
2018-Apr-17 20:28N 37°48' W 122°24'0 0.0
2018-Apr-17 19:58N 37°48' W 122°24'0 0.0
2018-Apr-17 19:28N 37°48' W 122°24'0 0.0
2018-Apr-17 18:58N 37°48' W 122°24'0 0.0
2018-Apr-17 18:28N 37°48' W 122°24'0 0.0
2018-Apr-17 17:58N 37°48' W 122°24'0 0.0
2018-Apr-17 17:28N 37°48' W 122°24'0 0.0
2018-Apr-17 16:58N 37°48' W 122°24'0 0.0
2018-Apr-17 16:28N 37°48' W 122°24'1 3.0
2018-Apr-17 16:00N 37°47' W 122°23'714.1
2018-Apr-17 15:29N 37°40' W 122°23'817.8
2018-Apr-17 15:00N 37°48' W 122°19'1 1.5
2018-Apr-17 14:30N 37°47' W 122°18'5 9.5
2018-Apr-17 13:58N 37°48' W 122°24'0 0.0
2018-Apr-17 13:28N 37°48' W 122°24'0 0.0
2018-Apr-17 01:35N 37°48' W 122°24'0 0.1
2018-Apr-17 01:29N 37°48' W 122°24'511.5
2018-Apr-17 01:00N 37°48' W 122°17'714.1
2018-Apr-17 00:30N 37°41' W 122°22'2 3.7
2018-Apr-17 00:00N 37°40' W 122°23'816.6
2018-Apr-16 23:30N 37°48' W 122°23'1 0.1
2018-Apr-16 17:30N 37°48' W 122°24'1 1.8
2018-Apr-16 17:00N 37°49' W 122°25'0 0.0
2018-Apr-16 16:30N 37°49' W 122°25'1 1.5
2018-Apr-16 16:01N 37°49' W 122°24'917.0
2018-Apr-16 15:28N 37°40' W 122°23'818.4
2018-Apr-16 15:00N 37°48' W 122°20'2 3.8
2018-Apr-16 14:30N 37°47' W 122°18'5 9.6
2018-Apr-16 13:59N 37°48' W 122°24'0 0.0
2018-Apr-16 13:29N 37°48' W 122°24'0 0.0
2018-Apr-16 12:59N 37°48' W 122°24'  
2018-Apr-14 01:50N 37°48' W 122°24'1 4.5
2018-Apr-14 01:30N 37°48' W 122°22'3 6.6
2018-Apr-14 00:59N 37°47' W 122°18'715.3
2018-Apr-14 00:30N 37°41' W 122°21'1 2.8
2018-Apr-14 00:00N 37°40' W 122°23'713.6
2018-Apr-13 23:30N 37°46' W 122°22'2 3.8
2018-Apr-13 22:59N 37°48' W 122°24'0 0.0
2018-Apr-13 22:29N 37°48' W 122°24'0 0.0
2018-Apr-13 21:59N 37°48' W 122°24'0 0.0
2018-Apr-13 21:29N 37°48' W 122°24'0 0.0
2018-Apr-13 20:59N 37°48' W 122°24'0 0.0
2018-Apr-13 20:29N 37°48' W 122°24'0 0.0
2018-Apr-13 19:59N 37°48' W 122°24'0 0.0
2018-Apr-13 19:29N 37°48' W 122°24'0 0.0
2018-Apr-13 18:59N 37°48' W 122°24'0 0.0
2018-Apr-13 18:29N 37°48' W 122°24'0 0.0
2018-Apr-13 17:59N 37°48' W 122°24'0 0.0
2018-Apr-13 17:29N 37°48' W 122°24'  

Dump ship's entire track history